Terminal Aerodrome Forecast
Issued by NWS Sterling, VA

Home | Current Version | Previous Version | Text Only | Print | Product List | Glossary On
Versions: 1 2 3 4 5 6 7 8 9 10 11 12 13 14 15 16 17 18 19 20 21 22
264
FTUS41 KLWX 201128
TAFIAD
TAF
KIAD 201128Z 2012/2118 29004KT P6SM SKC
     FM201400 32014G25KT P6SM SKC
     FM202300 33011G18KT P6SM SKC
     FM210100 33009KT P6SM SKC
     FM210500 VRB03KT P6SM SKC=

USA.gov is the U.S. government's official web portal to all federal, state and local government web resources and services.